Time;durP1;ratioP1;P1;durP2;ratioP2;P2;SDS_P1;SDS_P2;PMS_P1;PMS_P2;Temp;Humidity;BMP_temperature;BMP_pressure;BME280_temperature;BME280_humidity;BME280_pressure;Samples;Min_cycle;Max_cycle;Signal;HPM_P1;HPM_P2
2023/06/30 03:57:30;;;;;;;5.50;3.60;;;;;;;25.05;99.96;99669.70;106744;1253;62577;-81
2023/06/30 04:00:19;;;;;;;7.30;3.40;;;;;;;25.15;99.64;99664.54;106736;1251;61253;-79
2023/06/30 04:03:07;;;;;;;4.20;3.40;;;;;;;25.29;97.97;99657.94;106511;1251;61256;-81
2023/06/30 04:05:56;;;;;;;5.40;3.80;;;;;;;25.37;97.79;99659.23;106454;1251;64656;-81
2023/06/30 04:08:45;;;;;;;8.00;3.90;;;;;;;25.58;95.83;99656.98;106362;1254;61297;-77
2023/06/30 04:11:33;;;;;;;6.40;3.90;;;;;;;26.03;92.90;99663.23;106593;1251;64060;-79
2023/06/30 04:14:22;;;;;;;6.10;3.90;;;;;;;26.49;88.50;99665.98;106284;1251;180977;-81
2023/06/30 04:17:10;;;;;;;7.20;3.60;;;;;;;26.57;85.78;99664.60;106514;1253;61155;-80
2023/06/30 04:19:58;;;;;;;6.40;3.60;;;;;;;26.14;87.21;99666.17;106511;1254;64882;-79
2023/06/30 04:22:46;;;;;;;7.50;3.80;;;;;;;25.97;90.28;99669.19;106522;1254;61164;-82
2023/06/30 04:25:34;;;;;;;5.70;4.10;;;;;;;25.96;89.53;99672.06;106422;1254;63876;-79
2023/06/30 04:28:22;;;;;;;5.90;3.70;;;;;;;26.06;87.97;99681.00;106501;1252;61292;-80
2023/06/30 04:31:12;;;;;;;6.40;4.00;;;;;;;26.19;87.88;99680.98;106603;1254;61212;-82
2023/06/30 04:34:01;;;;;;;10.20;4.90;;;;;;;26.28;86.69;99686.30;106665;1252;65985;-81
2023/06/30 04:36:49;;;;;;;6.30;4.10;;;;;;;26.30;86.48;99686.22;106383;1252;61311;-80
2023/06/30 04:39:37;;;;;;;5.60;3.80;;;;;;;26.31;87.16;99688.85;106307;1257;64064;-80
2023/06/30 04:42:27;;;;;;;5.60;3.80;;;;;;;26.38;87.09;99685.23;106288;1254;61345;-80
2023/06/30 04:45:15;;;;;;;6.70;4.00;;;;;;;26.25;87.16;99686.86;106485;1252;61292;-80
2023/06/30 04:48:07;;;;;;;5.10;3.30;;;;;;;26.38;86.46;99687.31;106515;1256;65897;-82
2023/06/30 04:50:55;;;;;;;7.20;4.30;;;;;;;26.26;87.57;99683.75;106587;1253;61235;-82
2023/06/30 04:53:43;;;;;;;7.50;3.80;;;;;;;26.22;88.40;99681.20;106605;1256;64141;-82
2023/06/30 04:56:33;;;;;;;5.30;4.00;;;;;;;26.22;88.46;99681.36;106532;1255;61177;-83
2023/06/30 04:59:21;;;;;;;11.10;4.20;;;;;;;26.25;87.99;99685.52;106410;1253;61318;-83
2023/06/30 05:02:09;;;;;;;6.90;4.30;;;;;;;26.35;87.31;99682.36;106554;1253;66044;-81
2023/06/30 05:04:57;;;;;;;5.40;4.00;;;;;;;26.37;87.80;99685.87;106683;1254;61337;-83
2023/06/30 05:07:47;;;;;;;6.70;4.30;;;;;;;26.52;87.49;99684.48;106256;1252;65153;-81
2023/06/30 05:10:35;;;;;;;6.90;4.00;;;;;;;26.71;86.06;99681.13;106280;1253;61194;-82
2023/06/30 05:13:25;;;;;;;6.20;4.00;;;;;;;26.79;84.04;99674.36;106292;1256;61315;-82
2023/06/30 05:16:13;;;;;;;8.00;4.00;;;;;;;26.86;83.61;99674.01;106367;1255;65832;-82
2023/06/30 05:19:02;;;;;;;8.00;4.00;;;;;;;26.77;84.20;99680.38;106388;1252;61289;-81
2023/06/30 05:21:50;;;;;;;6.90;4.20;;;;;;;26.79;85.11;99686.84;106329;1257;63743;-83
2023/06/30 05:24:39;;;;;;;6.50;4.40;;;;;;;27.10;84.54;99693.33;106477;1251;61326;-81
2023/06/30 05:27:27;;;;;;;8.20;4.20;;;;;;;27.23;83.18;99695.84;106413;1251;61180;-82
2023/06/30 05:30:15;;;;;;;7.90;4.40;;;;;;;27.39;80.86;99690.91;106504;1253;65866;-82
2023/06/30 05:33:03;;;;;;;8.70;4.60;;;;;;;27.59;79.26;99690.27;106425;1257;61187;-83
2023/06/30 05:35:51;;;;;;;8.90;4.60;;;;;;;27.67;78.17;99689.63;106410;1254;62827;-80
2023/06/30 05:38:39;;;;;;;7.50;4.30;;;;;;;27.71;76.56;99688.73;106409;1251;61246;-82
2023/06/30 05:41:27;;;;;;;7.60;4.30;;;;;;;27.63;76.27;99682.30;106614;1251;61339;-82
2023/06/30 05:44:18;;;;;;;7.20;4.70;;;;;;;27.72;77.87;99676.85;106450;1252;65951;-85
2023/06/30 05:47:07;;;;;;;6.70;4.20;;;;;;;27.83;79.31;99678.20;106436;1253;61445;-85
2023/06/30 05:49:59;;;;;;;7.80;4.00;;;;;;;28.23;76.23;99679.71;106324;1253;64353;-84
2023/06/30 05:52:58;;;;;;;7.00;4.20;;;;;;;28.48;74.19;99678.56;106530;1252;61218;-84
2023/06/30 05:55:55;;;;;;;7.80;4.70;;;;;;;28.49;76.45;99668.35;106471;1253;61356;-84
2023/06/30 05:58:44;;;;;;;7.50;4.20;;;;;;;28.59;74.06;99666.63;106470;1251;64971;-85
2023/06/30 06:01:36;;;;;;;7.90;4.20;;;;;;;28.73;73.48;99672.09;106565;1251;61294;-84
2023/06/30 06:04:29;;;;;;;7.20;4.60;;;;;;;28.86;72.77;99672.31;106553;1252;63906;-84
2023/06/30 06:07:22;;;;;;;8.60;4.90;;;;;;;29.12;73.17;99671.45;106602;1253;61247;-85
2023/06/30 06:10:15;;;;;;;7.50;4.60;;;;;;;29.23;70.01;99673.33;106473;1254;61151;-86
2023/06/30 06:13:10;;;;;;;6.40;4.60;;;;;;;29.23;69.68;99680.73;106398;1252;67400;-85
2023/06/30 06:16:01;;;;;;;5.60;4.50;;;;;;;29.24;67.24;99680.05;106385;1257;61315;-83
2023/06/30 06:18:55;;;;;;;7.10;4.70;;;;;;;29.02;67.22;99683.80;106451;1256;64925;-83
2023/06/30 06:21:47;;;;;;;6.70;4.40;;;;;;;28.99;66.48;99685.86;106487;1255;61233;-83
2023/06/30 06:24:35;;;;;;;8.30;5.00;;;;;;;29.02;67.04;99687.90;106671;1253;61798;-83
2023/06/30 06:27:24;;;;;;;8.90;4.40;;;;;;;29.44;63.61;99685.52;106465;1253;66557;-84
2023/06/30 06:30:13;;;;;;;6.10;4.40;;;;;;;29.39;63.26;99685.35;106354;1255;61516;-85
2023/06/30 06:33:01;;;;;;;9.10;5.00;;;;;;;29.70;60.01;99683.74;106442;1254;65046;-84
2023/06/30 06:35:53;;;;;;;9.50;5.00;;;;;;;29.69;58.90;99680.30;106374;1256;61160;-83
2023/06/30 06:38:50;;;;;;;8.40;5.00;;;;;;;29.88;59.83;99677.46;106418;1251;61266;-84
2023/06/30 06:41:44;;;;;;;6.70;4.30;;;;;;;30.18;59.27;99677.63;106657;1254;64973;-84
2023/06/30 06:44:38;;;;;;;5.90;4.50;;;;;;;30.31;59.20;99681.84;106642;1251;61224;-84
2023/06/30 06:48:06;;;;;;;6.70;4.90;;;;;;;30.40;57.57;99676.44;106589;1256;64520;-84
2023/06/30 06:50:59;;;;;;;5.30;4.80;;;;;;;30.54;58.22;99673.16;106519;1252;61310;-85
2023/06/30 06:53:48;;;;;;;7.60;4.70;;;;;;;30.73;56.28;99672.11;106607;1254;61227;-83
2023/06/30 06:56:36;;;;;;;7.70;4.90;;;;;;;30.82;53.92;99670.97;106587;1251;65931;-84
2023/06/30 06:59:29;;;;;;;6.40;5.20;;;;;;;30.69;54.65;99673.40;106600;1254;61223;-85
2023/06/30 07:02:17;;;;;;;5.20;4.30;;;;;;;30.52;55.69;99673.93;106347;1258;64134;-84
2023/06/30 07:05:06;;;;;;;6.10;4.60;;;;;;;30.50;59.01;99668.48;106453;1259;61445;-85
2023/06/30 07:07:56;;;;;;;8.30;4.50;;;;;;;30.93;55.91;99664.84;106715;1254;61266;-83
2023/06/30 07:10:50;;;;;;;9.10;4.60;;;;;;;31.21;55.24;99664.92;106624;1254;75155;-84
2023/06/30 07:13:40;;;;;;;7.70;4.70;;;;;;;31.23;53.45;99662.22;106439;1254;61287;-85
2023/06/30 07:16:39;;;;;;;7.60;4.90;;;;;;;31.09;51.39;99655.54;106485;1255;65041;-84
2023/06/30 07:19:31;;;;;;;7.70;5.30;;;;;;;31.12;53.05;99654.32;106444;1257;61150;-85
2023/06/30 07:22:21;;;;;;;5.80;4.80;;;;;;;31.41;51.75;99649.29;106374;1254;61225;-83
2023/06/30 07:25:09;;;;;;;7.50;4.60;;;;;;;31.55;49.89;99649.74;106616;1253;67498;-83
2023/06/30 07:27:58;;;;;;;8.60;4.70;;;;;;;31.67;49.68;99647.58;106602;1256;61396;-83
2023/06/30 07:30:46;;;;;;;6.20;4.60;;;;;;;31.79;49.52;99648.25;106509;1254;64106;-84
2023/06/30 07:33:34;;;;;;;7.30;4.90;;;;;;;31.91;47.83;99646.73;106366;1254;61403;-82
2023/06/30 07:36:22;;;;;;;8.40;4.90;;;;;;;32.10;47.51;99647.27;106667;1255;61119;-83
2023/06/30 07:39:11;;;;;;;6.40;4.80;;;;;;;32.08;45.74;99641.52;106638;1257;66178;-84
2023/06/30 07:41:59;;;;;;;4.80;4.30;;;;;;;32.04;45.27;99643.49;106464;1253;61729;-83
2023/06/30 07:44:49;;;;;;;5.80;4.50;;;;;;;32.05;45.96;99643.45;106503;1255;65168;-84
2023/06/30 07:47:41;;;;;;;5.90;4.70;;;;;;;32.35;47.27;99643.48;106475;1254;61253;-84
2023/06/30 07:50:30;;;;;;;5.60;4.40;;;;;;;32.60;47.28;99645.29;106318;1253;61215;-84
2023/06/30 07:53:21;;;;;;;6.90;4.20;;;;;;;32.57;47.09;99644.73;106656;1253;65833;-84
2023/06/30 07:56:09;;;;;;;6.60;4.90;;;;;;;32.65;44.94;99646.02;106673;1254;61321;-84
2023/06/30 07:58:58;;;;;;;6.40;4.40;;;;;;;32.53;45.33;99647.09;106660;1255;63988;-83
2023/06/30 08:01:46;;;;;;;6.20;4.90;;;;;;;32.50;45.56;99639.67;106420;1254;61195;-84
2023/06/30 08:04:35;;;;;;;5.90;4.70;;;;;;;32.58;45.54;99640.19;106842;1253;62531;-84
2023/06/30 08:07:24;;;;;;;6.70;4.60;;;;;;;32.54;45.92;99647.55;106727;1252;65427;-84
2023/06/30 08:10:32;;;;;;;8.30;4.20;;;;;;;32.57;43.36;99647.15;106599;1257;61160;-84
2023/06/30 08:13:20;;;;;;;8.10;5.00;;;;;;;32.58;42.11;99643.98;106454;1253;62494;-84
2023/06/30 08:16:09;;;;;;;4.90;4.00;;;;;;;32.83;42.42;99644.66;106472;1254;61269;-84
2023/06/30 08:18:57;;;;;;;5.60;4.40;;;;;;;33.03;40.47;99648.36;106427;1253;61329;-84
2023/06/30 08:21:46;;;;;;;6.20;4.10;;;;;;;33.10;40.04;99642.58;106533;1254;64605;-83
2023/06/30 08:24:34;;;;;;;7.30;4.90;;;;;;;33.18;39.93;99640.69;106415;1253;61311;-85
2023/06/30 08:27:23;;;;;;;6.80;4.70;;;;;;;33.21;40.30;99637.35;106271;1254;62704;-85
2023/06/30 08:30:12;;;;;;;6.50;4.40;;;;;;;33.17;41.45;99635.61;106570;1256;61397;-83
2023/06/30 08:33:00;;;;;;;10.10;4.40;;;;;;;33.13;40.86;99636.42;106463;1253;61378;-84
2023/06/30 08:35:49;;;;;;;6.70;4.70;;;;;;;33.26;40.87;99636.69;106716;1254;66201;-84
2023/06/30 08:38:38;;;;;;;6.60;5.20;;;;;;;33.49;39.78;99633.45;106529;1256;61263;-84
2023/06/30 08:41:27;;;;;;;8.70;5.00;;;;;;;33.35;39.99;99634.77;106502;1254;63886;-84
2023/06/30 08:44:15;;;;;;;5.50;4.10;;;;;;;33.29;40.36;99633.20;106374;1254;61262;-84
2023/06/30 08:47:04;;;;;;;6.60;4.40;;;;;;;33.29;39.98;99632.23;106405;1254;61425;-84
2023/06/30 08:49:56;;;;;;;7.00;4.00;;;;;;;33.35;39.93;99637.20;106601;1254;67459;-84
2023/06/30 08:52:48;;;;;;;15.10;6.30;;;;;;;33.29;39.32;99631.28;106423;1254;62559;-84
2023/06/30 08:55:37;;;;;;;6.90;4.70;;;;;;;33.24;39.81;99634.17;106857;1254;64077;-84
2023/06/30 08:58:28;;;;;;;7.70;4.10;;;;;;;33.35;39.14;99633.48;106251;1256;61306;-84
2023/06/30 09:01:17;;;;;;;7.10;4.50;;;;;;;33.35;38.27;99634.78;106758;1256;61111;-82
2023/06/30 09:04:14;;;;;;;7.50;4.10;;;;;;;33.37;38.45;99639.15;106522;1253;66050;-84
2023/06/30 09:07:08;;;;;;;8.70;5.50;;;;;;;33.53;37.60;99636.77;106443;1256;61320;-83
2023/06/30 09:09:57;;;;;;;7.50;4.40;;;;;;;33.57;37.12;99628.71;106533;1256;64619;-82
2023/06/30 09:12:48;;;;;;;7.50;4.30;;;;;;;33.52;37.57;99631.46;106787;1252;61297;-82
2023/06/30 09:15:38;;;;;;;7.80;4.60;;;;;;;33.60;37.03;99631.20;106463;1254;61099;-85
2023/06/30 09:18:29;;;;;;;7.80;4.10;;;;;;;33.76;36.23;99634.29;106547;1256;66128;-84
2023/06/30 09:21:21;;;;;;;5.20;4.30;;;;;;;34.10;35.78;99634.08;106496;1253;68472;-84
2023/06/30 09:24:15;;;;;;;6.60;4.00;;;;;;;34.45;35.36;99624.54;106627;1256;63639;-83
2023/06/30 09:27:04;;;;;;;5.90;4.00;;;;;;;34.46;36.01;99625.61;106378;1252;61252;-83
2023/06/30 09:29:55;;;;;;;9.70;5.10;;;;;;;34.69;34.97;99627.68;106313;1256;59388;-84
2023/06/30 09:32:47;;;;;;;5.20;3.80;;;;;;;34.57;34.75;99626.10;106518;1254;74615;-84
2023/06/30 09:35:39;;;;;;;6.60;4.20;;;;;;;34.52;34.99;99629.52;106477;1253;61154;-84
2023/06/30 09:38:29;;;;;;;8.20;4.20;;;;;;;34.72;34.67;99625.14;106478;1259;64468;-85
2023/06/30 09:41:19;;;;;;;7.20;4.10;;;;;;;34.62;34.84;99624.54;106469;1254;61335;-84
2023/06/30 09:44:10;;;;;;;5.00;3.60;;;;;;;34.54;35.20;99623.05;106754;1253;61249;-84
2023/06/30 09:47:02;;;;;;;6.10;3.90;;;;;;;34.53;35.93;99628.90;106391;1254;64613;-84
2023/06/30 09:49:49;;;;;;;5.60;4.00;;;;;;;34.58;35.93;99625.98;106402;1257;61273;-84
2023/06/30 09:52:38;;;;;;;5.70;4.20;;;;;;;34.52;35.57;99620.30;106586;1253;62819;-85
2023/06/30 09:55:27;;;;;;;5.40;4.10;;;;;;;34.62;35.29;99620.98;106405;1254;61333;-85
2023/06/30 09:58:24;;;;;;;7.50;3.90;;;;;;;34.82;34.44;99620.27;106551;1254;61257;-84
2023/06/30 10:01:23;;;;;;;4.60;4.00;;;;;;;34.67;33.35;99614.84;106603;1254;69381;-85
2023/06/30 10:04:20;;;;;;;5.00;4.00;;;;;;;34.25;33.17;99623.98;106714;1255;69275;-83
2023/06/30 10:07:11;;;;;;;6.30;4.00;;;;;;;34.15;34.09;99616.75;106515;1257;64011;-84
2023/06/30 10:10:14;;;;;;;7.80;4.60;;;;;;;34.36;34.59;99611.80;106509;1252;61262;-84
2023/06/30 10:13:11;;;;;;;9.00;4.90;;;;;;;34.69;33.77;99608.38;106546;1256;61247;-85
2023/06/30 10:16:03;;;;;;;5.80;4.30;;;;;;;34.96;33.93;99607.30;106640;1254;65011;-84
2023/06/30 10:18:52;;;;;;;9.20;5.10;;;;;;;35.16;32.78;99603.81;106340;1256;61276;-84
2023/06/30 10:21:41;;;;;;;5.10;4.30;;;;;;;34.99;32.95;99602.73;106928;1253;64058;-84
2023/06/30 10:24:32;;;;;;;5.20;4.10;;;;;;;35.01;32.94;99603.45;106494;1252;61278;-83
2023/06/30 10:27:20;;;;;;;5.10;4.00;;;;;;;35.16;32.42;99605.40;106713;1254;61372;-84
2023/06/30 10:30:10;;;;;;;6.20;4.30;;;;;;;35.11;31.99;99602.10;106433;1256;68056;-85
2023/06/30 10:32:59;;;;;;;5.30;4.10;;;;;;;35.04;31.30;99607.72;106347;1254;61298;-85
2023/06/30 10:35:47;;;;;;;9.50;4.10;;;;;;;34.85;31.32;99608.58;106580;1254;64113;-85
2023/06/30 10:38:37;;;;;;;4.90;3.90;;;;;;;34.57;32.72;99607.21;106690;1254;61135;-85
2023/06/30 10:41:25;;;;;;;5.10;4.40;;;;;;;34.32;33.39;99612.62;106381;1254;62221;-85
2023/06/30 10:44:14;;;;;;;5.50;4.00;;;;;;;34.11;33.77;99613.45;106566;1253;66070;-83
2023/06/30 10:47:02;;;;;;;7.30;4.90;;;;;;;33.92;34.61;99610.81;106517;1256;61309;-85
2023/06/30 10:49:53;;;;;;;6.10;3.60;;;;;;;34.10;34.80;99608.58;106477;1256;64102;-84
2023/06/30 10:52:48;;;;;;;6.70;4.40;;;;;;;34.32;34.04;99597.96;106637;1252;61263;-84
2023/06/30 10:55:42;;;;;;;6.90;4.10;;;;;;;34.59;33.36;99602.77;106933;1254;61113;-84
2023/06/30 10:58:31;;;;;;;5.10;3.80;;;;;;;34.69;32.48;99607.58;106492;1253;66133;-84
2023/06/30 11:01:19;;;;;;;6.40;4.10;;;;;;;34.53;31.84;99606.22;106845;1254;61349;-85
2023/06/30 11:04:10;;;;;;;4.70;3.90;;;;;;;34.30;32.30;99600.56;106471;1257;64075;-85
2023/06/30 11:07:07;;;;;;;6.30;4.60;;;;;;;34.33;33.42;99599.70;106753;1256;61186;-84
2023/06/30 11:09:58;;;;;;;7.20;4.30;;;;;;;34.55;33.72;99596.73;106653;1254;61275;-85
2023/06/30 11:12:52;;;;;;;5.70;4.10;;;;;;;34.88;34.02;99589.77;106767;1255;66115;-84
2023/06/30 11:15:44;;;;;;;8.00;4.50;;;;;;;34.89;34.34;99589.02;106659;1254;61340;-85
2023/06/30 11:18:34;;;;;;;5.70;4.30;;;;;;;35.48;32.18;99579.36;106612;1253;64106;-84
2023/06/30 11:21:23;;;;;;;5.50;4.10;;;;;;;35.61;31.56;99583.69;106562;1254;61211;-84
2023/06/30 11:24:15;;;;;;;6.70;4.60;;;;;;;35.54;31.17;99591.63;106532;1257;61247;-86
2023/06/30 11:27:06;;;;;;;7.20;4.60;;;;;;;35.27;31.49;99595.08;106790;1254;64832;-85
2023/06/30 11:30:00;;;;;;;5.10;3.80;;;;;;;34.84;32.29;99592.30;106512;1257;61260;-86
2023/06/30 11:32:51;;;;;;;6.60;4.30;;;;;;;34.75;32.40;99589.73;106354;1257;62609;-83
2023/06/30 11:35:40;;;;;;;6.40;4.30;;;;;;;35.12;32.02;99584.02;106659;1255;61264;-85
2023/06/30 11:38:42;;;;;;;5.10;4.20;;;;;;;35.44;31.62;99577.60;106499;1256;61228;-86
2023/06/30 11:41:32;;;;;;;4.90;4.00;;;;;;;35.71;31.54;99569.45;106285;1254;66039;-85
2023/06/30 11:44:21;;;;;;;6.60;4.20;;;;;;;36.07;30.89;99564.39;106516;1254;61237;-85
2023/06/30 11:47:10;;;;;;;6.10;4.40;;;;;;;36.53;30.40;99562.32;106301;1257;63782;-86
2023/06/30 11:50:07;;;;;;;4.80;3.70;;;;;;;36.32;30.28;99561.96;106516;1252;61268;-85
2023/06/30 11:52:57;;;;;;;8.30;5.30;;;;;;;36.16;30.82;99558.09;106413;1254;61259;-85
2023/06/30 11:55:45;;;;;;;6.50;3.60;;;;;;;36.19;31.32;99555.36;106718;1255;66921;-84
2023/06/30 11:58:37;;;;;;;7.60;4.30;;;;;;;36.41;31.51;99554.58;106643;1251;61275;-85
2023/06/30 12:01:26;;;;;;;5.40;4.30;;;;;;;36.85;30.47;99550.90;106540;1254;64084;-84
2023/06/30 12:04:14;;;;;;;6.40;3.90;;;;;;;36.86;30.27;99552.78;106570;1254;61298;-83
2023/06/30 12:07:08;;;;;;;6.40;4.80;;;;;;;36.62;30.05;99547.59;106648;1254;61301;-85
2023/06/30 12:10:00;;;;;;;4.70;4.10;;;;;;;36.22;29.40;99540.99;106662;1254;68106;-84
2023/06/30 12:12:56;;;;;;;6.00;4.00;;;;;;;35.78;29.63;99538.60;106481;1257;61292;-84
2023/06/30 12:15:55;;;;;;;7.10;4.00;;;;;;;35.20;30.51;99536.42;106656;1257;72716;-85
2023/06/30 12:18:44;;;;;;;4.90;3.90;;;;;;;34.83;30.91;99537.13;106789;1255;61336;-84
2023/06/30 12:21:41;;;;;;;6.50;4.10;;;;;;;34.86;30.86;99532.52;106319;1254;61231;-85
2023/06/30 12:24:44;;;;;;;6.70;4.30;;;;;;;35.05;30.90;99537.52;106464;1257;64961;-85
2023/06/30 12:27:43;;;;;;;4.90;3.90;;;;;;;35.16;31.07;99537.55;106519;1255;61910;-86
2023/06/30 12:30:40;;;;;;;6.30;3.80;;;;;;;35.17;31.13;99541.04;106574;1254;62699;-84
2023/06/30 12:33:51;;;;;;;7.00;3.90;;;;;;;35.42;30.66;99541.62;106260;1254;61274;-88
2023/06/30 12:36:41;;;;;;;5.80;4.10;;;;;;;35.80;29.84;99535.81;106553;1257;61221;-85
2023/06/30 12:39:30;;;;;;;5.00;3.70;;;;;;;36.24;29.81;99534.88;106448;1254;66097;-85
2023/06/30 12:42:18;;;;;;;5.50;3.70;;;;;;;36.67;28.92;99539.91;106853;1256;61303;-84
2023/06/30 12:45:15;;;;;;;5.20;3.60;;;;;;;36.75;28.34;99542.86;106458;1257;64018;-86
2023/06/30 12:48:07;;;;;;;6.90;4.30;;;;;;;36.63;28.42;99543.20;106593;1256;61323;-85
2023/06/30 12:51:03;;;;;;;7.60;4.60;;;;;;;36.24;29.40;99543.92;106583;1253;61339;-83
2023/06/30 12:53:52;;;;;;;5.30;3.70;;;;;;;36.26;29.03;99546.27;106455;1259;66050;-86
2023/06/30 12:56:42;;;;;;;4.60;3.90;;;;;;;36.61;28.21;99544.75;106692;1254;61343;-86
2023/06/30 12:59:43;;;;;;;5.00;3.80;;;;;;;37.01;27.55;99538.68;106525;1253;65137;-86
2023/06/30 13:02:33;;;;;;;6.50;4.20;;;;;;;37.20;27.10;99530.15;106543;1252;61288;-87
2023/06/30 13:05:34;;;;;;;5.10;3.80;;;;;;;37.14;27.70;99528.27;106517;1257;60370;-85
2023/06/30 13:08:25;;;;;;;5.40;4.40;;;;;;;36.77;28.26;99526.75;106415;1257;66612;-87
2023/06/30 13:11:25;;;;;;;5.40;3.90;;;;;;;36.63;28.57;99522.70;106485;1254;70048;-86
2023/06/30 13:14:14;;;;;;;7.00;3.90;;;;;;;36.72;28.52;99531.41;106553;1262;65480;-86
2023/06/30 13:17:05;;;;;;;5.70;3.80;;;;;;;36.94;28.26;99534.63;106306;1253;61279;-85
2023/06/30 13:19:56;;;;;;;6.50;4.10;;;;;;;37.04;27.98;99529.89;106448;1255;61160;-85
2023/06/30 13:22:48;;;;;;;4.80;3.40;;;;;;;37.02;27.62;99526.48;106496;1254;65976;-86
2023/06/30 13:26:06;;;;;;;5.60;4.00;;;;;;;36.87;27.35;99528.06;106295;1260;61286;-87
2023/06/30 13:29:04;;;;;;;6.50;3.90;;;;;;;36.66;28.00;99525.19;106440;1253;63947;-86
2023/06/30 13:31:55;;;;;;;4.30;3.90;;;;;;;36.56;28.51;99523.88;106577;1252;61442;-84
2023/06/30 13:34:47;;;;;;;5.40;4.00;;;;;;;36.53;28.83;99521.66;106424;1256;61308;-85
2023/06/30 13:37:36;;;;;;;6.90;4.20;;;;;;;36.36;28.87;99523.37;106715;1257;67192;-85
2023/06/30 13:40:33;;;;;;;7.20;4.60;;;;;;;36.12;29.28;99525.23;106467;1262;61365;-83
2023/06/30 13:43:25;;;;;;;7.20;4.00;;;;;;;35.72;29.66;99527.34;106529;1257;63936;-84
2023/06/30 13:46:14;;;;;;;6.10;4.40;;;;;;;35.30;30.32;99527.00;106630;1257;61321;-85
2023/06/30 13:49:10;;;;;;;6.40;4.00;;;;;;;34.85;31.20;99533.27;106429;1256;61239;-85
2023/06/30 14:02:00;;;;;;;;;;;;;;;34.01;33.17;99566.95;106612;1257;64035;-89
2023/06/30 14:04:54;;;;;;;7.90;3.50;;;;;;;33.42;32.54;99579.60;106580;1255;61305;-87
2023/06/30 14:08:11;;;;;;;5.60;2.40;;;;;;;32.68;31.98;99581.43;106410;1257;61323;-88
2023/06/30 14:11:23;;;;;;;4.30;2.60;;;;;;;32.27;31.95;99576.61;106437;1255;65807;-87
2023/06/30 14:14:16;;;;;;;3.80;2.60;;;;;;;32.11;31.79;99571.36;106446;1257;61275;-87
2023/06/30 14:17:05;;;;;;;5.80;3.50;;;;;;;32.07;31.94;99568.48;106398;1254;64984;-87
2023/06/30 14:19:56;;;;;;;6.90;4.20;;;;;;;32.39;32.35;99564.88;106358;1257;61346;-88
2023/06/30 14:22:44;;;;;;;5.20;3.10;;;;;;;32.92;31.67;99566.30;106442;1254;61334;-87
2023/06/30 14:25:33;;;;;;;5.20;3.10;;;;;;;33.38;31.72;99562.42;106460;1254;64766;-87
2023/06/30 14:28:36;;;;;;;4.10;2.90;;;;;;;33.61;31.30;99560.05;106641;1253;61754;-88
2023/06/30 14:31:26;;;;;;;5.90;3.40;;;;;;;33.44;31.67;99563.55;106535;1257;64678;-86
2023/06/30 14:34:14;;;;;;;5.20;3.30;;;;;;;33.56;32.21;99565.98;106510;1256;61203;-87
2023/06/30 14:37:03;;;;;;;5.10;3.20;;;;;;;33.79;32.18;99570.01;106683;1257;61168;-88
2023/06/30 18:42:36;;;;;;;6.90;4.20;;;;;;;28.01;63.26;99726.48;106550;1252;64821;-83
2023/06/30 18:45:25;;;;;;;6.50;3.90;;;;;;;27.97;64.41;99727.41;106596;1254;61295;-83
2023/06/30 18:48:17;;;;;;;6.10;4.30;;;;;;;27.98;64.80;99727.65;106382;1254;66498;-88
2023/06/30 18:51:07;;;;;;;6.70;4.30;;;;;;;27.84;66.16;99729.74;106401;1254;61239;-84
2023/06/30 18:53:56;;;;;;;6.20;3.70;;;;;;;27.81;66.79;99726.98;106557;1251;61165;-83
2023/06/30 18:56:46;;;;;;;5.90;3.90;;;;;;;27.68;67.81;99728.28;106565;1253;66677;-87
2023/06/30 18:59:36;;;;;;;7.20;4.30;;;;;;;27.74;67.78;99721.89;106410;1251;61544;-83
2023/06/30 19:02:30;;;;;;;5.20;4.30;;;;;;;27.80;67.59;99719.45;106616;1253;64708;-87
2023/06/30 19:05:20;;;;;;;6.60;3.80;;;;;;;27.74;67.85;99720.45;106300;1251;61288;-83
2023/06/30 19:08:09;;;;;;;6.40;3.90;;;;;;;27.80;67.42;99715.27;106513;1251;61225;-86
2023/06/30 19:11:02;;;;;;;5.40;4.00;;;;;;;27.84;66.92;99710.44;106499;1251;67999;-87
2023/06/30 19:13:51;;;;;;;6.40;4.50;;;;;;;27.85;66.59;99703.21;106479;1253;61282;-87
2023/06/30 19:16:41;;;;;;;6.30;4.30;;;;;;;27.71;67.43;99701.64;106369;1251;63919;-86
2023/06/30 19:19:32;;;;;;;6.60;4.00;;;;;;;27.50;68.68;99701.64;106501;1251;61403;-86
2023/06/30 19:22:21;;;;;;;4.90;3.80;;;;;;;27.37;69.73;99704.05;106548;1252;61359;-85
2023/06/30 19:25:10;;;;;;;6.10;4.10;;;;;;;27.32;70.22;99710.02;106275;1254;65783;-86
2023/06/30 19:27:58;;;;;;;6.40;4.00;;;;;;;27.21;71.14;99716.73;106477;1251;61375;-81
2023/06/30 19:30:46;;;;;;;8.50;4.40;;;;;;;27.26;70.86;99719.61;106421;1257;64874;-82
2023/06/30 19:33:36;;;;;;;7.20;4.40;;;;;;;27.19;71.33;99725.80;106558;1251;61269;-82
2023/06/30 19:36:25;;;;;;;6.00;3.80;;;;;;;27.21;71.09;99721.95;106571;1255;61132;-82
2023/06/30 19:39:12;;;;;;;5.40;3.70;;;;;;;27.17;71.14;99723.96;106370;1254;64569;-82
2023/06/30 19:42:00;;;;;;;6.80;3.90;;;;;;;27.03;72.02;99727.48;106480;1252;61132;-81
2023/06/30 19:44:49;;;;;;;8.00;3.90;;;;;;;27.06;71.80;99727.88;106505;1254;64059;-81
2023/06/30 19:47:37;;;;;;;7.80;4.00;;;;;;;27.03;71.99;99728.85;106667;1254;61243;-80
2023/06/30 19:50:27;;;;;;;6.30;3.80;;;;;;;27.06;71.69;99725.70;106487;1253;61216;-82
2023/06/30 19:53:15;;;;;;;5.90;4.20;;;;;;;27.05;71.41;99727.00;106434;1254;66948;-82
2023/06/30 19:56:03;;;;;;;6.40;4.10;;;;;;;27.08;71.15;99724.18;106536;1254;61116;-81
2023/06/30 19:58:51;;;;;;;4.80;3.70;;;;;;;27.09;70.89;99721.92;106417;1255;64131;-82
2023/06/30 20:01:43;;;;;;;4.70;3.80;;;;;;;27.12;70.36;99721.51;106520;1256;61304;-81
2023/06/30 20:04:32;;;;;;;7.70;3.90;;;;;;;27.25;69.37;99720.97;106565;1252;61221;-82
2023/06/30 20:07:20;;;;;;;5.10;3.70;;;;;;;27.29;68.73;99717.27;106447;1251;65832;-82
2023/06/30 20:10:08;;;;;;;7.10;3.70;;;;;;;27.28;68.44;99717.20;106382;1254;61362;-82
2023/06/30 20:12:56;;;;;;;5.20;4.20;;;;;;;27.27;68.46;99713.84;106447;1251;71779;-82
2023/06/30 20:15:44;;;;;;;5.10;4.10;;;;;;;27.21;68.89;99715.55;106517;1254;61205;-84
2023/06/30 20:18:33;;;;;;;6.00;4.10;;;;;;;27.28;68.51;99715.75;106438;1251;61193;-83
2023/06/30 20:21:21;;;;;;;6.90;3.60;;;;;;;27.38;67.91;99719.85;106502;1254;66655;-83
2023/06/30 20:24:10;;;;;;;6.00;3.90;;;;;;;27.33;68.08;99722.14;106500;1254;61234;-83
2023/06/30 20:27:02;;;;;;;6.30;4.10;;;;;;;27.33;67.99;99723.80;106454;1254;63935;-84
2023/06/30 20:29:53;;;;;;;5.80;4.10;;;;;;;27.28;68.33;99719.92;106518;1253;61253;-82
2023/06/30 20:32:41;;;;;;;5.00;3.70;;;;;;;27.26;68.39;99717.92;106490;1251;61203;-82
2023/06/30 20:35:29;;;;;;;5.40;3.50;;;;;;;27.16;68.77;99717.81;106438;1257;65815;-82
2023/06/30 20:38:19;;;;;;;6.70;4.20;;;;;;;27.09;69.09;99716.71;106441;1254;61279;-82
2023/06/30 20:41:07;;;;;;;4.70;3.80;;;;;;;27.04;69.42;99717.06;106320;1254;63926;-82
2023/06/30 20:43:56;;;;;;;6.40;3.90;;;;;;;27.03;69.13;99715.46;106432;1256;61228;-82
2023/06/30 20:46:44;;;;;;;6.50;3.60;;;;;;;26.88;70.10;99715.63;106757;1254;60198;-83
2023/06/30 20:49:32;;;;;;;5.50;3.60;;;;;;;26.90;70.40;99713.94;106462;1253;65925;-82
2023/06/30 20:52:20;;;;;;;4.60;3.40;;;;;;;26.90;70.41;99714.98;106574;1254;61231;-82
2023/06/30 20:55:08;;;;;;;5.40;3.70;;;;;;;26.82;71.23;99719.42;106388;1254;64127;-82
2023/06/30 20:57:56;;;;;;;5.50;3.70;;;;;;;26.89;71.09;99716.19;106441;1252;61353;-82
2023/06/30 21:00:44;;;;;;;4.40;3.30;;;;;;;26.83;71.89;99716.70;106482;1252;61420;-82
2023/06/30 21:03:33;;;;;;;5.10;3.60;;;;;;;26.81;72.43;99714.30;106470;1253;65825;-83
2023/06/30 21:06:21;;;;;;;5.30;3.60;;;;;;;26.83;72.48;99717.42;106463;1256;61297;-82
2023/06/30 21:09:09;;;;;;;4.60;3.60;;;;;;;26.88;72.38;99715.64;106433;1254;63874;-83
2023/06/30 21:12:02;;;;;;;4.50;3.50;;;;;;;26.83;72.65;99715.66;106434;1253;61301;-84
2023/06/30 21:14:50;;;;;;;4.90;4.00;;;;;;;26.71;73.19;99712.74;106484;1251;61217;-83
2023/06/30 21:17:39;;;;;;;5.70;3.90;;;;;;;26.78;72.87;99716.73;106422;1256;65932;-83
2023/06/30 21:20:27;;;;;;;5.10;3.70;;;;;;;26.76;72.88;99721.61;106379;1251;61339;-83
2023/06/30 21:23:18;;;;;;;4.10;3.30;;;;;;;26.72;73.17;99719.85;106522;1252;64036;-82